Time;durP1;ratioP1;P1;durP2;ratioP2;P2;SDS_P1;SDS_P2;PMS_P1;PMS_P2;Temp;Humidity;BMP_temperature;BMP_pressure;BME280_temperature;BME280_humidity;BME280_pressure;Samples;Min_cycle;Max_cycle;Signal;HPM_P1;HPM_P2
2022/07/20 00:00:26;;;;;;;9.63;4.45;;;;;;;;;;5014255;28;20061;-74
2022/07/20 00:03:12;;;;;;;9.95;5.78;;;;;;;;;;5015339;28;20064;-73
2022/07/20 00:05:57;;;;;;;13.48;6.15;;;;;;;;;;5002955;28;20034;-78
2022/07/20 00:11:47;;;;;;;8.48;4.65;;;;;;;;;;5041381;28;20153;-73
2022/07/20 00:14:33;;;;;;;9.32;4.78;;;;;;;;;;5041764;28;20048;-68
2022/07/20 00:17:18;;;;;;;9.90;4.75;;;;;;;;;;4995749;28;20115;-77
2022/07/20 00:20:04;;;;;;;7.85;4.70;;;;;;;;;;5040783;28;20085;-77
2022/07/20 00:22:50;;;;;;;7.72;5.13;;;;;;;;;;5025162;28;20025;-75
2022/07/20 00:25:36;;;;;;;11.05;4.80;;;;;;;;;;5027666;28;20025;-74
2022/07/20 00:28:21;;;;;;;12.13;4.57;;;;;;;;;;5043013;28;20052;-74
2022/07/20 00:31:10;;;;;;;8.95;5.28;;;;;;;;;;5029174;28;20039;-69
2022/07/20 00:33:56;;;;;;;8.52;4.93;;;;;;;;;;5026430;28;20056;-76
2022/07/20 00:36:41;;;;;;;10.05;4.65;;;;;;;;;;5042477;28;20090;-76
2022/07/20 00:39:27;;;;;;;9.48;5.10;;;;;;;;;;5028638;28;20033;-77
2022/07/20 00:42:13;;;;;;;9.82;4.97;;;;;;;;;;5036812;28;20029;-73
2022/07/20 00:44:58;;;;;;;9.90;5.55;;;;;;;;;;5013906;28;20120;-77
2022/07/20 00:47:44;;;;;;;10.68;4.82;;;;;;;;;;5020449;28;20436;-78
2022/07/20 00:50:30;;;;;;;9.48;5.18;;;;;;;;;;5024163;28;20037;-71
2022/07/20 00:53:15;;;;;;;8.90;4.93;;;;;;;;;;5031082;28;20030;-73
2022/07/20 00:56:02;;;;;;;9.77;5.07;;;;;;;;;;5021943;28;20038;-73
2022/07/20 00:58:48;;;;;;;8.88;4.68;;;;;;;;;;5017311;28;20578;-73
2022/07/20 01:01:34;;;;;;;9.95;4.85;;;;;;;;;;5019849;28;20523;-73
2022/07/20 01:04:20;;;;;;;7.55;4.75;;;;;;;;;;5017714;28;20381;-73
2022/07/20 01:07:05;;;;;;;10.20;4.72;;;;;;;;;;5016962;28;20127;-74
2022/07/20 01:09:51;;;;;;;7.82;5.00;;;;;;;;;;5027841;28;20039;-73
2022/07/20 01:12:37;;;;;;;8.98;5.25;;;;;;;;;;5038271;28;20025;-78
2022/07/20 01:15:23;;;;;;;10.02;5.40;;;;;;;;;;5033928;28;20396;-79
2022/07/20 01:18:09;;;;;;;8.57;4.88;;;;;;;;;;5041698;28;20037;-77
2022/07/20 01:21:02;;;;;;;10.52;4.50;;;;;;;;;;5035894;28;20032;-77
2022/07/20 01:23:48;;;;;;;10.32;5.20;;;;;;;;;;5032370;28;20488;-78
2022/07/20 01:26:33;;;;;;;8.10;5.57;;;;;;;;;;5040052;28;20036;-73
2022/07/20 01:29:19;;;;;;;8.15;5.03;;;;;;;;;;5042358;28;20093;-76
2022/07/20 01:32:05;;;;;;;8.55;5.28;;;;;;;;;;5040357;28;20037;-79
2022/07/20 01:34:50;;;;;;;10.98;5.25;;;;;;;;;;5035950;28;20488;-77
2022/07/20 01:37:36;;;;;;;9.27;4.68;;;;;;;;;;5023211;28;20524;-78
2022/07/20 01:40:21;;;;;;;9.25;5.10;;;;;;;;;;5020569;28;20476;-76
2022/07/20 01:43:07;;;;;;;8.75;5.35;;;;;;;;;;5040651;28;20082;-74
2022/07/20 01:45:53;;;;;;;9.85;5.07;;;;;;;;;;5022186;28;20033;-70
2022/07/20 01:48:38;;;;;;;10.32;4.82;;;;;;;;;;5032096;28;20400;-70
2022/07/20 01:51:24;;;;;;;10.98;5.22;;;;;;;;;;5033968;28;20033;-71
2022/07/20 01:54:10;;;;;;;9.93;5.30;;;;;;;;;;5021699;28;20112;-71
2022/07/20 01:56:55;;;;;;;9.20;4.70;;;;;;;;;;5019869;28;20033;-70
2022/07/20 01:59:41;;;;;;;9.25;5.25;;;;;;;;;;5025068;28;20680;-71
2022/07/20 02:02:26;;;;;;;9.07;5.05;;;;;;;;;;5027254;28;20060;-71
2022/07/20 02:05:13;;;;;;;11.63;5.47;;;;;;;;;;5034230;28;20029;-67
2022/07/20 02:07:59;;;;;;;9.25;4.90;;;;;;;;;;5009864;28;20361;-78
2022/07/20 02:10:44;;;;;;;9.60;5.10;;;;;;;;;;5001756;28;20120;-75
2022/07/20 02:13:30;;;;;;;7.95;5.20;;;;;;;;;;5018438;28;20033;-76
2022/07/20 02:16:16;;;;;;;8.65;5.43;;;;;;;;;;5019216;28;20473;-78
2022/07/20 02:19:01;;;;;;;7.85;4.90;;;;;;;;;;4999915;28;20037;-78
2022/07/20 02:21:47;;;;;;;9.80;4.82;;;;;;;;;;5005807;28;20411;-68
2022/07/20 02:24:33;;;;;;;8.15;5.35;;;;;;;;;;5000994;28;20033;-69
2022/07/20 02:27:18;;;;;;;8.43;5.22;;;;;;;;;;4991630;28;20034;-77
2022/07/20 02:30:04;;;;;;;9.73;5.10;;;;;;;;;;4994166;28;20045;-77
2022/07/20 02:32:50;;;;;;;8.98;5.15;;;;;;;;;;5013470;28;20045;-78
2022/07/20 02:35:35;;;;;;;8.85;5.35;;;;;;;;;;4984804;28;20030;-77
2022/07/20 02:38:21;;;;;;;11.88;5.95;;;;;;;;;;5001567;28;20408;-77
2022/07/20 02:41:07;;;;;;;9.50;5.53;;;;;;;;;;5011378;28;20396;-70
2022/07/20 02:43:52;;;;;;;9.15;5.28;;;;;;;;;;5012376;28;20038;-70
2022/07/20 02:46:38;;;;;;;7.85;4.45;;;;;;;;;;5014855;28;20033;-70
2022/07/20 02:49:24;;;;;;;9.60;5.30;;;;;;;;;;5010253;28;20145;-71
2022/07/20 02:52:10;;;;;;;8.98;5.43;;;;;;;;;;5009137;28;20447;-70
2022/07/20 02:54:55;;;;;;;10.80;5.30;;;;;;;;;;5018767;28;20499;-69
2022/07/20 02:57:41;;;;;;;9.90;5.35;;;;;;;;;;5001276;28;20048;-71
2022/07/20 03:00:26;;;;;;;10.32;5.68;;;;;;;;;;4998657;28;20029;-70
2022/07/20 03:03:12;;;;;;;12.23;5.32;;;;;;;;;;5011889;28;20050;-71
2022/07/20 03:05:59;;;;;;;11.73;5.55;;;;;;;;;;5018263;28;20025;-70
2022/07/20 03:08:44;;;;;;;9.05;5.05;;;;;;;;;;5012296;28;20030;-72
2022/07/20 03:11:30;;;;;;;9.55;4.97;;;;;;;;;;4998293;28;20045;-70
2022/07/20 03:14:16;;;;;;;11.85;5.82;;;;;;;;;;4989189;28;20423;-70
2022/07/20 03:17:01;;;;;;;10.95;5.65;;;;;;;;;;4996360;28;20034;-75
2022/07/20 03:19:47;;;;;;;11.23;5.40;;;;;;;;;;5023094;28;20056;-72
2022/07/20 03:22:32;;;;;;;9.27;5.18;;;;;;;;;;5032446;28;20098;-68
2022/07/20 03:25:19;;;;;;;11.35;5.57;;;;;;;;;;5009424;28;20037;-68
2022/07/20 03:28:29;;;;;;;10.23;5.18;;;;;;;;;;4971821;28;20038;-68
2022/07/20 03:31:16;;;;;;;15.02;6.07;;;;;;;;;;4996138;28;20044;-68
2022/07/20 03:34:04;;;;;;;10.98;5.72;;;;;;;;;;4957800;28;20072;-68
2022/07/20 03:36:51;;;;;;;10.10;4.97;;;;;;;;;;4998078;28;20037;-77
2022/07/20 03:39:37;;;;;;;10.02;5.78;;;;;;;;;;5019240;28;20025;-73
2022/07/20 03:42:22;;;;;;;10.75;5.82;;;;;;;;;;5002171;28;20029;-73
2022/07/20 03:45:08;;;;;;;12.48;6.18;;;;;;;;;;5000816;28;20030;-72
2022/07/20 03:47:54;;;;;;;11.68;5.25;;;;;;;;;;5002125;28;20384;-71
2022/07/20 03:50:40;;;;;;;10.32;5.72;;;;;;;;;;5005591;28;20131;-72
2022/07/20 03:53:25;;;;;;;10.25;6.25;;;;;;;;;;5016062;28;20564;-72
2022/07/20 03:56:11;;;;;;;12.50;5.43;;;;;;;;;;4988293;28;20341;-74
2022/07/20 03:58:57;;;;;;;10.07;5.40;;;;;;;;;;5009989;28;20048;-78
2022/07/20 04:01:43;;;;;;;12.25;6.40;;;;;;;;;;5007250;28;20026;-78
2022/07/20 04:04:28;;;;;;;9.95;5.03;;;;;;;;;;4983748;28;20038;-78
2022/07/20 04:07:14;;;;;;;8.38;5.95;;;;;;;;;;5010626;28;20030;-78
2022/07/20 04:09:59;;;;;;;9.55;5.55;;;;;;;;;;5007592;28;20338;-81
2022/07/20 04:12:45;;;;;;;9.23;5.25;;;;;;;;;;5008334;28;20042;-78
2022/07/20 04:15:31;;;;;;;10.48;6.05;;;;;;;;;;4991417;28;20070;-73
2022/07/20 04:18:17;;;;;;;11.68;4.63;;;;;;;;;;4979345;28;20026;-72
2022/07/20 04:21:02;;;;;;;9.93;5.82;;;;;;;;;;4979771;28;20062;-73
2022/07/20 04:23:48;;;;;;;6.65;4.82;;;;;;;;;;5016601;28;20026;-73
2022/07/20 04:26:34;;;;;;;11.60;5.57;;;;;;;;;;4994391;28;20029;-72
2022/07/20 04:29:20;;;;;;;9.27;5.68;;;;;;;;;;4972462;28;20034;-73
2022/07/20 04:32:06;;;;;;;14.45;5.97;;;;;;;;;;4990954;28;20042;-72
2022/07/20 04:34:52;;;;;;;11.73;5.50;;;;;;;;;;5017408;28;20056;-68
2022/07/20 04:37:37;;;;;;;9.30;4.93;;;;;;;;;;5017664;28;20481;-68
2022/07/20 04:40:23;;;;;;;11.50;5.97;;;;;;;;;;4967366;28;20050;-68
2022/07/20 04:43:09;;;;;;;8.82;5.70;;;;;;;;;;4990561;28;20037;-67
2022/07/20 04:45:54;;;;;;;12.50;5.97;;;;;;;;;;4990942;28;20030;-71
2022/07/20 04:48:40;;;;;;;11.65;5.63;;;;;;;;;;4989223;28;20029;-72
2022/07/20 04:51:25;;;;;;;10.35;5.65;;;;;;;;;;5024245;28;20112;-72
2022/07/20 04:54:11;;;;;;;12.25;5.68;;;;;;;;;;4971706;28;20065;-76
2022/07/20 04:56:57;;;;;;;9.93;5.90;;;;;;;;;;4984040;28;20466;-77
2022/07/20 04:59:43;;;;;;;10.80;6.32;;;;;;;;;;4986884;28;20058;-78
2022/07/20 05:02:28;;;;;;;11.20;5.45;;;;;;;;;;4994580;28;20100;-76
2022/07/20 05:05:14;;;;;;;8.23;5.47;;;;;;;;;;4994411;28;20088;-76
2022/07/20 05:07:59;;;;;;;11.38;5.75;;;;;;;;;;5020886;28;20128;-74
2022/07/20 05:10:45;;;;;;;10.20;4.90;;;;;;;;;;4996276;28;20038;-73
2022/07/20 05:13:30;;;;;;;15.32;6.03;;;;;;;;;;5001536;28;20644;-73
2022/07/20 05:16:16;;;;;;;11.15;5.95;;;;;;;;;;4987959;28;20035;-73
2022/07/20 05:19:02;;;;;;;10.00;5.72;;;;;;;;;;5016052;28;20029;-73
2022/07/20 05:21:47;;;;;;;12.00;5.72;;;;;;;;;;5018477;28;20060;-73
2022/07/20 05:24:33;;;;;;;8.88;5.07;;;;;;;;;;5008107;28;20028;-73
2022/07/20 05:27:19;;;;;;;11.23;5.50;;;;;;;;;;4986987;28;20104;-77
2022/07/20 05:30:05;;;;;;;9.80;5.85;;;;;;;;;;4981994;28;20508;-77
2022/07/20 05:32:50;;;;;;;8.68;5.43;;;;;;;;;;4994141;28;20038;-77
2022/07/20 05:35:36;;;;;;;10.68;6.30;;;;;;;;;;5022667;28;20068;-79
2022/07/20 05:38:22;;;;;;;10.85;5.90;;;;;;;;;;4975089;28;20022;-77
2022/07/20 05:41:07;;;;;;;11.38;5.88;;;;;;;;;;4948804;28;20053;-77
2022/07/20 05:43:53;;;;;;;8.48;5.28;;;;;;;;;;4985218;28;20037;-69
2022/07/20 05:46:38;;;;;;;9.73;5.07;;;;;;;;;;5011079;28;20034;-68
2022/07/20 05:49:24;;;;;;;10.20;5.53;;;;;;;;;;4973484;28;20042;-77
2022/07/20 05:52:09;;;;;;;8.90;4.68;;;;;;;;;;4979247;28;20029;-78
2022/07/20 05:54:55;;;;;;;11.63;5.38;;;;;;;;;;5010625;28;20033;-76
2022/07/20 05:57:41;;;;;;;8.68;5.15;;;;;;;;;;4999339;28;20069;-76
2022/07/20 06:00:27;;;;;;;12.32;5.80;;;;;;;;;;4970981;28;20054;-74
2022/07/20 06:03:13;;;;;;;13.52;5.50;;;;;;;;;;5004436;28;20056;-73
2022/07/20 06:06:14;;;;;;;10.20;5.70;;;;;;;;;;5010830;28;20416;-67
2022/07/20 06:09:00;;;;;;;7.90;4.85;;;;;;;;;;4996770;28;20026;-69
2022/07/20 06:11:46;;;;;;;9.40;4.72;;;;;;;;;;4990552;28;20052;-68
2022/07/20 06:14:31;;;;;;;9.00;5.68;;;;;;;;;;4971875;28;20462;-68
2022/07/20 06:17:17;;;;;;;10.60;5.63;;;;;;;;;;4982608;28;20035;-68
2022/07/20 06:20:06;;;;;;;12.18;4.95;;;;;;;;;;4987235;28;20037;-68
2022/07/20 06:22:51;;;;;;;12.10;5.10;;;;;;;;;;4964392;28;20030;-72
2022/07/20 06:25:37;;;;;;;13.07;5.93;;;;;;;;;;4967060;28;20047;-73
2022/07/20 06:28:23;;;;;;;5.72;4.45;;;;;;;;;;4985491;28;20481;-73
2022/07/20 06:31:08;;;;;;;10.18;5.15;;;;;;;;;;5005357;28;20049;-74
2022/07/20 06:33:54;;;;;;;9.30;5.35;;;;;;;;;;5012206;28;20067;-73
2022/07/20 06:36:40;;;;;;;10.18;5.15;;;;;;;;;;4984216;28;20045;-72
2022/07/20 06:39:25;;;;;;;13.80;5.50;;;;;;;;;;5009456;28;20029;-79
2022/07/20 06:42:11;;;;;;;13.85;5.35;;;;;;;;;;4989538;28;20026;-72
2022/07/20 06:44:57;;;;;;;11.93;5.38;;;;;;;;;;4980339;28;20030;-79
2022/07/20 06:47:42;;;;;;;13.98;5.78;;;;;;;;;;4946800;28;20039;-76
2022/07/20 06:50:28;;;;;;;17.17;6.10;;;;;;;;;;4945078;28;20051;-75
2022/07/20 06:53:13;;;;;;;11.88;5.35;;;;;;;;;;4957617;28;20454;-75
2022/07/20 06:56:00;;;;;;;10.38;5.70;;;;;;;;;;4998202;28;20029;-77
2022/07/20 06:58:46;;;;;;;12.27;5.20;;;;;;;;;;5015012;28;20037;-67
2022/07/20 07:01:32;;;;;;;14.02;5.65;;;;;;;;;;4951076;28;20046;-74
2022/07/20 07:04:17;;;;;;;14.30;5.82;;;;;;;;;;4986735;28;20092;-74
2022/07/20 07:07:03;;;;;;;14.02;5.82;;;;;;;;;;4973151;28;20070;-74
2022/07/20 07:09:49;;;;;;;15.23;6.50;;;;;;;;;;4981153;28;20116;-73
2022/07/20 07:12:34;;;;;;;10.95;5.63;;;;;;;;;;4986141;28;20061;-73
2022/07/20 07:15:20;;;;;;;11.07;5.82;;;;;;;;;;5000834;28;20108;-73
2022/07/20 07:18:05;;;;;;;12.88;6.05;;;;;;;;;;5035928;28;20036;-73
2022/07/20 07:20:51;;;;;;;13.10;5.80;;;;;;;;;;4976896;28;20034;-74
2022/07/20 07:23:37;;;;;;;10.63;6.22;;;;;;;;;;4997599;28;20046;-72
2022/07/20 07:26:22;;;;;;;9.23;5.80;;;;;;;;;;4980732;28;20137;-72
2022/07/20 07:29:08;;;;;;;10.35;6.00;;;;;;;;;;4982534;28;20506;-73
2022/07/20 07:31:58;;;;;;;12.23;6.38;;;;;;;;;;4959515;28;21160;-74
2022/07/20 07:34:44;;;;;;;11.40;5.80;;;;;;;;;;4976614;28;20034;-68
2022/07/20 07:37:30;;;;;;;14.70;6.93;;;;;;;;;;4979325;28;20117;-74
2022/07/20 07:40:15;;;;;;;9.88;6.47;;;;;;;;;;4978740;28;20041;-77
2022/07/20 07:43:01;;;;;;;9.40;5.18;;;;;;;;;;4952668;28;20023;-78
2022/07/20 07:45:47;;;;;;;12.55;5.70;;;;;;;;;;4958838;28;20026;-77
2022/07/20 07:48:32;;;;;;;13.32;5.55;;;;;;;;;;4970559;28;20478;-77
2022/07/20 07:51:18;;;;;;;9.60;5.40;;;;;;;;;;4992043;28;20136;-79
2022/07/20 07:54:04;;;;;;;12.45;5.30;;;;;;;;;;5013788;28;20029;-74
2022/07/20 07:56:50;;;;;;;7.95;5.35;;;;;;;;;;4998008;28;20037;-77
2022/07/20 07:59:35;;;;;;;10.32;5.10;;;;;;;;;;4989640;28;20129;-73
2022/07/20 08:02:21;;;;;;;9.52;5.57;;;;;;;;;;4993011;28;20034;-73
2022/07/20 08:05:07;;;;;;;7.78;5.18;;;;;;;;;;5003280;28;20026;-73
2022/07/20 08:07:52;;;;;;;11.98;5.75;;;;;;;;;;4997398;28;20500;-73
2022/07/20 08:10:39;;;;;;;10.57;5.22;;;;;;;;;;4979052;28;20038;-74
2022/07/20 08:13:24;;;;;;;10.82;5.55;;;;;;;;;;4960363;28;20118;-73
2022/07/20 08:16:10;;;;;;;9.50;4.80;;;;;;;;;;4941843;28;20028;-74
2022/07/20 08:18:56;;;;;;;11.68;5.28;;;;;;;;;;4970080;28;20573;-75
2022/07/20 08:21:41;;;;;;;9.38;5.57;;;;;;;;;;4964971;28;20034;-75
2022/07/20 08:24:30;;;;;;;8.85;4.80;;;;;;;;;;4947734;28;20478;-75
2022/07/20 08:27:15;;;;;;;;;;;;;;;;;;4967239;28;20038;-74
2022/07/20 08:30:01;;;;;;;10.75;5.90;;;;;;;;;;4998519;28;19917;-79
2022/07/20 08:32:47;;;;;;;14.68;6.10;;;;;;;;;;4990621;28;20034;-77
2022/07/20 08:35:32;;;;;;;9.23;5.93;;;;;;;;;;4993761;28;20034;-78
2022/07/20 08:38:18;;;;;;;9.40;4.75;;;;;;;;;;4967265;28;20042;-76
2022/07/20 08:41:06;;;;;;;9.18;5.15;;;;;;;;;;5019233;28;20061;-77
2022/07/20 08:43:52;;;;;;;8.95;5.22;;;;;;;;;;4967748;28;20038;-75
2022/07/20 08:46:37;;;;;;;11.75;4.57;;;;;;;;;;4967835;28;20521;-77
2022/07/20 08:49:23;;;;;;;9.77;5.47;;;;;;;;;;4984466;28;20066;-79
2022/07/20 08:52:09;;;;;;;11.63;5.72;;;;;;;;;;4994654;28;20037;-73
2022/07/20 08:54:55;;;;;;;10.30;5.03;;;;;;;;;;5009636;28;20038;-73
2022/07/20 08:57:40;;;;;;;7.85;4.70;;;;;;;;;;4980238;28;20070;-72
2022/07/20 09:00:26;;;;;;;8.30;5.00;;;;;;;;;;4986269;28;20501;-73
2022/07/20 09:03:12;;;;;;;9.95;5.78;;;;;;;;;;4983713;28;20094;-74
2022/07/20 09:06:05;;;;;;;10.45;5.53;;;;;;;;;;4998200;28;20037;-73
2022/07/20 09:09:04;;;;;;;9.73;5.07;;;;;;;;;;4998506;28;20030;-72
2022/07/20 09:11:50;;;;;;;8.55;5.32;;;;;;;;;;4993810;28;20061;-76
2022/07/20 09:14:38;;;;;;;9.50;5.60;;;;;;;;;;4986850;28;20038;-75
2022/07/20 09:17:25;;;;;;;8.98;5.22;;;;;;;;;;4968524;28;20102;-75
2022/07/20 09:20:12;;;;;;;9.57;5.25;;;;;;;;;;4955994;28;20489;-75
2022/07/20 09:23:02;;;;;;;12.65;5.75;;;;;;;;;;4967245;28;20408;-75
2022/07/20 09:26:20;;;;;;;9.70;5.53;;;;;;;;;;4960351;28;20509;-78
2022/07/20 09:29:06;;;;;;;9.82;5.95;;;;;;;;;;4884895;28;20048;-72
2022/07/20 09:32:00;;;;;;;9.35;5.60;;;;;;;;;;4963585;28;20050;-74
2022/07/20 09:34:46;;;;;;;10.07;5.50;;;;;;;;;;4982305;28;20425;-72
2022/07/20 09:37:38;;;;;;;13.10;4.95;;;;;;;;;;4992714;28;20745;-73
2022/07/20 09:40:24;;;;;;;9.77;5.13;;;;;;;;;;4960557;28;20034;-75
2022/07/20 09:43:26;;;;;;;11.10;4.75;;;;;;;;;;4982032;28;20381;-77
2022/07/20 09:46:16;;;;;;;10.45;4.60;;;;;;;;;;4958968;28;20483;-75
2022/07/20 09:49:03;;;;;;;8.85;5.15;;;;;;;;;;4955204;28;20112;-72
2022/07/20 09:51:56;;;;;;;6.60;5.05;;;;;;;;;;4948265;28;20035;-74
2022/07/20 09:54:42;;;;;;;10.05;6.45;;;;;;;;;;4959465;28;20042;-74
2022/07/20 09:57:28;;;;;;;9.43;4.55;;;;;;;;;;4929140;28;20052;-74
2022/07/20 10:00:13;;;;;;;9.13;4.80;;;;;;;;;;4907825;29;20044;-75
2022/07/20 10:03:00;;;;;;;9.68;4.53;;;;;;;;;;4950943;28;20478;-74
2022/07/20 10:05:45;;;;;;;13.05;4.78;;;;;;;;;;4925270;28;20090;-77
2022/07/20 10:08:31;;;;;;;12.02;4.88;;;;;;;;;;4931851;29;20392;-75
2022/07/20 10:11:18;;;;;;;12.30;5.40;;;;;;;;;;4942697;28;20047;-75
2022/07/20 10:14:04;;;;;;;11.98;5.05;;;;;;;;;;4927670;28;20034;-78
2022/07/20 10:16:51;;;;;;;8.48;4.50;;;;;;;;;;4960923;28;20501;-76
2022/07/20 10:19:45;;;;;;;11.45;4.97;;;;;;;;;;4974023;28;20045;-77
2022/07/20 10:22:31;;;;;;;9.82;4.40;;;;;;;;;;4979791;28;20034;-75
2022/07/20 10:25:17;;;;;;;9.13;5.82;;;;;;;;;;4984651;28;20438;-71
2022/07/20 10:28:22;;;;;;;9.15;4.75;;;;;;;;;;4972091;28;20053;-70
2022/07/20 10:31:11;;;;;;;9.02;5.50;;;;;;;;;;4962749;28;20049;-70
2022/07/20 10:33:57;;;;;;;9.38;4.55;;;;;;;;;;4976793;28;20042;-71
2022/07/20 10:37:03;;;;;;;10.20;5.40;;;;;;;;;;4946652;28;22068;-72
2022/07/20 10:39:49;;;;;;;11.13;5.63;;;;;;;;;;4939692;28;20024;-70
2022/07/20 10:42:54;;;;;;;11.13;5.28;;;;;;;;;;4906305;29;20063;-68
2022/07/20 10:45:46;;;;;;;10.48;4.63;;;;;;;;;;4892809;29;20427;-67
2022/07/20 10:48:55;;;;;;;9.27;5.05;;;;;;;;;;4864020;29;20036;-72
2022/07/20 10:51:43;;;;;;;9.15;4.55;;;;;;;;;;4898417;29;20054;-69
2022/07/20 10:54:32;;;;;;;9.20;4.68;;;;;;;;;;4919972;28;20039;-70
2022/07/20 10:57:20;;;;;;;13.95;5.07;;;;;;;;;;4956317;28;20043;-73
2022/07/20 11:00:25;;;;;;;9.90;4.80;;;;;;;;;;4936998;28;20522;-70
2022/07/20 11:03:13;;;;;;;;;;;;;;;;;;4968747;28;20405;-69
2022/07/20 11:06:01;;;;;;;9.52;5.32;;;;;;;;;;4951338;28;19921;-71
2022/07/20 11:08:56;;;;;;;10.80;4.88;;;;;;;;;;4970483;28;20039;-70
2022/07/20 11:11:42;;;;;;;8.68;4.30;;;;;;;;;;4972367;28;20050;-70
2022/07/20 11:14:28;;;;;;;13.00;5.22;;;;;;;;;;4926097;28;20047;-70
2022/07/20 11:17:15;;;;;;;9.07;4.63;;;;;;;;;;4890082;28;20047;-70
2022/07/20 11:20:00;;;;;;;10.80;5.18;;;;;;;;;;4937931;28;20035;-74
2022/07/20 11:22:46;;;;;;;11.32;4.95;;;;;;;;;;4942544;28;20113;-73
2022/07/20 11:25:49;;;;;;;11.55;5.22;;;;;;;;;;4939701;28;20112;-72
2022/07/20 11:28:37;;;;;;;9.52;5.03;;;;;;;;;;4911771;28;20555;-73
2022/07/20 11:31:27;;;;;;;10.38;4.88;;;;;;;;;;4948922;28;20438;-75
2022/07/20 11:34:13;;;;;;;8.65;4.95;;;;;;;;;;4939833;28;20503;-74
2022/07/20 11:37:00;;;;;;;14.73;5.28;;;;;;;;;;4936367;28;20038;-73
2022/07/20 11:39:45;;;;;;;8.73;4.90;;;;;;;;;;4928874;28;20037;-74
2022/07/20 11:42:31;;;;;;;9.70;4.97;;;;;;;;;;4893486;29;20032;-74
2022/07/20 11:45:23;;;;;;;7.57;4.82;;;;;;;;;;4888213;29;20036;-74
2022/07/20 11:48:22;;;;;;;8.70;5.28;;;;;;;;;;4957474;28;20034;-74
2022/07/20 11:51:08;;;;;;;7.57;4.80;;;;;;;;;;4959398;28;20050;-73
2022/07/20 11:53:54;;;;;;;10.00;5.00;;;;;;;;;;4941449;28;20082;-71
2022/07/20 11:56:39;;;;;;;14.32;6.03;;;;;;;;;;4944485;28;20055;-70
2022/07/20 11:59:26;;;;;;;15.35;4.85;;;;;;;;;;4921778;28;20530;-73
2022/07/20 12:02:12;;;;;;;8.38;4.88;;;;;;;;;;4921726;28;20043;-69
2022/07/20 12:04:58;;;;;;;9.82;5.07;;;;;;;;;;4943377;28;20115;-69
2022/07/20 12:08:18;;;;;;;11.98;5.32;;;;;;;;;;4943474;28;20042;-70
2022/07/20 12:10:56;;;;;;;9.68;5.68;;;;;;;;;;4894550;29;20059;-73
2022/07/20 12:13:45;;;;;;;9.80;4.63;;;;;;;;;;4927666;28;20031;-72
2022/07/20 12:16:38;;;;;;;8.68;5.13;;;;;;;;;;4936292;28;20409;-73
2022/07/20 12:19:24;;;;;;;7.90;5.50;;;;;;;;;;4976277;28;20149;-73
2022/07/20 12:22:16;;;;;;;12.35;5.93;;;;;;;;;;5000730;28;20041;-74
2022/07/20 12:25:02;;;;;;;11.48;5.63;;;;;;;;;;5037898;28;20035;-72
2022/07/20 12:27:48;;;;;;;13.43;5.57;;;;;;;;;;5007685;28;20041;-73
2022/07/20 12:30:36;;;;;;;8.15;4.85;;;;;;;;;;4995250;28;20050;-70
2022/07/20 12:33:22;;;;;;;12.88;6.32;;;;;;;;;;4953056;28;20066;-79
2022/07/20 12:36:08;;;;;;;10.88;5.80;;;;;;;;;;4970256;28;20134;-80
2022/07/20 12:38:53;;;;;;;10.05;5.25;;;;;;;;;;4979492;28;21582;-80
2022/07/20 12:41:40;;;;;;;17.58;5.50;;;;;;;;;;5010750;28;20050;-77
2022/07/20 12:44:29;;;;;;;11.88;5.53;;;;;;;;;;4984386;28;20034;-74
2022/07/20 12:47:16;;;;;;;11.25;5.68;;;;;;;;;;4951093;28;20514;-71
2022/07/20 12:50:02;;;;;;;14.43;5.75;;;;;;;;;;4973878;28;20041;-76
2022/07/20 12:52:47;;;;;;;10.73;6.57;;;;;;;;;;4989564;28;20126;-71
2022/07/20 12:55:33;;;;;;;10.90;6.97;;;;;;;;;;4979545;28;20058;-72
2022/07/20 12:58:18;;;;;;;18.95;7.32;;;;;;;;;;5002873;28;20317;-71
2022/07/20 13:01:05;;;;;;;13.07;8.48;;;;;;;;;;4966886;28;20027;-72
2022/07/20 13:03:50;;;;;;;13.65;7.55;;;;;;;;;;4962995;28;20046;-72
2022/07/20 13:06:36;;;;;;;19.10;8.95;;;;;;;;;;4976487;28;20042;-75
2022/07/20 13:09:22;;;;;;;14.57;8.80;;;;;;;;;;4999540;28;20022;-70
2022/07/20 13:12:08;;;;;;;15.63;9.52;;;;;;;;;;4974908;28;20073;-69
2022/07/20 13:14:54;;;;;;;17.00;9.50;;;;;;;;;;4999486;28;20521;-70
2022/07/20 13:17:39;;;;;;;15.25;11.40;;;;;;;;;;4980360;28;20061;-70
2022/07/20 13:20:25;;;;;;;16.70;11.15;;;;;;;;;;5013009;28;20104;-71
2022/07/20 13:23:11;;;;;;;17.80;11.50;;;;;;;;;;5002958;28;20031;-69
2022/07/20 13:25:57;;;;;;;13.07;11.02;;;;;;;;;;5014740;28;20129;-71
2022/07/20 13:28:42;;;;;;;16.65;11.13;;;;;;;;;;5005739;28;20041;-68
2022/07/20 13:31:30;;;;;;;16.63;10.93;;;;;;;;;;4982351;28;20030;-68
2022/07/20 13:34:22;;;;;;;20.55;11.85;;;;;;;;;;5027046;28;20044;-70
2022/07/20 13:37:07;;;;;;;15.55;12.27;;;;;;;;;;4963403;28;20034;-68
2022/07/20 13:39:53;;;;;;;16.83;12.82;;;;;;;;;;5011849;28;20009;-68
2022/07/20 13:42:39;;;;;;;21.48;12.10;;;;;;;;;;4958396;28;20053;-72
2022/07/20 13:45:25;;;;;;;16.23;11.27;;;;;;;;;;5003460;28;20082;-69
2022/07/20 13:48:11;;;;;;;20.02;12.57;;;;;;;;;;4990234;28;20037;-77
2022/07/20 13:50:57;;;;;;;19.52;13.48;;;;;;;;;;5034594;28;20055;-76
2022/07/20 13:53:42;;;;;;;23.48;13.38;;;;;;;;;;5015895;28;20021;-78
2022/07/20 13:56:31;;;;;;;19.83;12.90;;;;;;;;;;5038256;28;20033;-78
2022/07/20 13:59:16;;;;;;;24.80;14.20;;;;;;;;;;5006083;28;20099;-76
2022/07/20 14:02:06;;;;;;;18.60;13.95;;;;;;;;;;5020565;28;20185;-68
2022/07/20 14:04:52;;;;;;;19.75;13.07;;;;;;;;;;5032446;28;20055;-70
2022/07/20 14:07:38;;;;;;;20.45;13.07;;;;;;;;;;4999283;28;20029;-70
2022/07/20 14:10:24;;;;;;;19.73;13.02;;;;;;;;;;4990056;28;20490;-70
2022/07/20 14:13:12;;;;;;;21.42;13.55;;;;;;;;;;5017029;28;20077;-70
2022/07/20 14:15:58;;;;;;;22.05;13.65;;;;;;;;;;5011259;28;20041;-70
2022/07/20 14:18:43;;;;;;;16.52;13.38;;;;;;;;;;5017228;28;20523;-70
2022/07/20 14:21:29;;;;;;;22.20;13.02;;;;;;;;;;5011793;28;20128;-78
2022/07/20 14:24:15;;;;;;;19.10;13.55;;;;;;;;;;5022998;28;20035;-72
2022/07/20 14:27:01;;;;;;;18.50;13.93;;;;;;;;;;5022774;28;20037;-72
2022/07/20 14:29:46;;;;;;;19.88;14.35;;;;;;;;;;5007719;28;20061;-73
2022/07/20 14:32:32;;;;;;;17.67;12.48;;;;;;;;;;5024298;28;20112;-72
2022/07/20 14:35:18;;;;;;;16.15;13.20;;;;;;;;;;5010308;28;20042;-71
2022/07/20 14:38:04;;;;;;;25.95;14.95;;;;;;;;;;5027815;28;20034;-67
2022/07/20 14:40:50;;;;;;;15.93;13.20;;;;;;;;;;4990577;28;20396;-71
2022/07/20 14:43:35;;;;;;;22.08;13.65;;;;;;;;;;5010151;28;20035;-75
2022/07/20 14:46:21;;;;;;;20.83;14.15;;;;;;;;;;5001141;28;20033;-74
2022/07/20 14:49:08;;;;;;;23.30;13.40;;;;;;;;;;5021246;28;20495;-75
2022/07/20 14:51:53;;;;;;;16.63;13.60;;;;;;;;;;5019706;28;20044;-76
2022/07/20 14:54:39;;;;;;;19.17;13.15;;;;;;;;;;5018971;28;20037;-76
2022/07/20 14:57:25;;;;;;;18.02;13.85;;;;;;;;;;5035849;28;20029;-71
2022/07/20 15:00:10;;;;;;;14.77;13.02;;;;;;;;;;5018963;28;20034;-72
2022/07/20 15:02:57;;;;;;;17.40;13.20;;;;;;;;;;5016838;28;20045;-72
2022/07/20 15:05:42;;;;;;;16.75;13.93;;;;;;;;;;5009555;28;20677;-72
2022/07/20 15:08:28;;;;;;;17.52;13.95;;;;;;;;;;4996288;28;20030;-73
2022/07/20 15:11:14;;;;;;;20.42;14.85;;;;;;;;;;4989559;28;20466;-72
2022/07/20 15:13:59;;;;;;;20.55;14.77;;;;;;;;;;4986073;28;20440;-71
2022/07/20 15:16:45;;;;;;;16.17;13.35;;;;;;;;;;4980678;28;20471;-74
2022/07/20 15:19:31;;;;;;;16.25;12.80;;;;;;;;;;4986383;28;20030;-72
2022/07/20 15:22:16;;;;;;;17.00;13.30;;;;;;;;;;4981252;28;20041;-73
2022/07/20 15:25:02;;;;;;;17.42;12.20;;;;;;;;;;4981273;28;20113;-73
2022/07/20 15:27:48;;;;;;;27.35;13.10;;;;;;;;;;4996070;28;20045;-74
2022/07/20 15:30:33;;;;;;;14.15;11.50;;;;;;;;;;4960198;28;20035;-73
2022/07/20 15:33:19;;;;;;;15.63;12.35;;;;;;;;;;4919602;28;20036;-67
2022/07/20 15:36:05;;;;;;;18.85;12.60;;;;;;;;;;4935080;28;20114;-68
2022/07/20 15:38:50;;;;;;;15.90;12.40;;;;;;;;;;4936211;28;20024;-70
2022/07/20 15:41:36;;;;;;;19.20;12.45;;;;;;;;;;4961879;28;20122;-70
2022/07/20 15:44:23;;;;;;;14.52;12.18;;;;;;;;;;5011339;28;20026;-69
2022/07/20 15:47:11;;;;;;;14.18;11.98;;;;;;;;;;5008634;28;20033;-70
2022/07/20 15:49:56;;;;;;;19.08;12.65;;;;;;;;;;5017635;28;20821;-70
2022/07/20 15:52:42;;;;;;;20.40;13.90;;;;;;;;;;5006539;28;20042;-75
2022/07/20 15:55:28;;;;;;;18.60;12.52;;;;;;;;;;5019862;28;20104;-67
2022/07/20 15:58:14;;;;;;;18.25;12.45;;;;;;;;;;5021131;28;20560;-73
2022/07/20 16:01:00;;;;;;;16.40;11.52;;;;;;;;;;5034839;28;20021;-67
2022/07/20 16:03:45;;;;;;;14.88;11.52;;;;;;;;;;5014305;28;20387;-66
2022/07/20 16:06:31;;;;;;;18.33;12.10;;;;;;;;;;5043006;28;20029;-66
2022/07/20 16:09:18;;;;;;;13.68;10.73;;;;;;;;;;5023482;28;20017;-68
2022/07/20 16:12:03;;;;;;;17.25;12.07;;;;;;;;;;5005958;28;20400;-69
2022/07/20 16:14:49;;;;;;;13.82;12.35;;;;;;;;;;5034729;28;20048;-69
2022/07/20 16:17:38;;;;;;;19.23;11.68;;;;;;;;;;5019496;28;20030;-68
2022/07/20 16:20:23;;;;;;;14.90;12.38;;;;;;;;;;5038368;28;20492;-68
2022/07/20 16:23:09;;;;;;;16.17;12.07;;;;;;;;;;5040378;28;20415;-68
2022/07/20 16:25:55;;;;;;;13.52;10.35;;;;;;;;;;5037745;28;20041;-69
2022/07/20 16:28:40;;;;;;;16.80;12.02;;;;;;;;;;5036998;28;20120;-72
2022/07/20 16:31:26;;;;;;;13.98;11.45;;;;;;;;;;5019741;28;20030;-71